LDB weather

Public forecast

Using degrees Celsius for public forecast. Weather courtesy of forecast.io.

Current aviation weather report (METAR) for Governador José Richa Airport

Report is more than 2 hours old.

Retrieved 2020/08/14 01:00 UTC (4 hours ago):

SBLO 140100Z 00000KT CAVOK 20/18 Q1014 RETS

Aviation forecast (TAF) for Governador José Richa Airport

Retrieved 2020-08-14 00:00 UTC (5 hours ago):

TAF SBLO 132200Z 1400/1412 02005KT 9999 SCT020 TX23/1400Z TN22/1405Z PROB30 TEMPO 1400/1402 3000 TSRA SCT010 BKN020 FEW030CB RMK PDU